CKK228 KORD-ZSPD
Flight info
| Callsign | CKK228 |
|---|---|
| Flight time | N/A |
| Altitude | 30000 |
| Route | PMPKN DCT NEATO DCT DLLAN DCT RONIC DCT BAE J89 DLH DCT KEBMO DCT KIROD/N0484F320 DCT YYL DCT BOTER DCT 67N120W 70N130W DCT TAYTA/N0481F340 DCT PILUN/K0891F340 M165 BEKMI N738 NERPA A965 RURIS/K0882F360 A965 ODANA N620 NALEB/K0878F350 N620 BADOM/K0893F370 M160 RUNET/K0887F360 M160 SIMLI/K0889S1100 A588 NODAL/K0872S1160 A588 CHI W107 SANKO/K0870S1130 A326 AKARA A593 PUD |
| Aircraft | B77L/H-SDE1E2E3FGHIJ2J3J4J5M1RWXY/LB1D1 |
Departure
| Time | 2026-05-01 09:05 |
|---|---|
| Airport | Chicago O'Hare International Airport (KORD) |
Arrival
| Time | N/A |
|---|---|
| Airport | Shanghai Pudong International Airport (ZSPD) |
| Time | Latitude | Longitude | Altitude | Speed | Heading |
|---|---|---|---|---|---|
| 2026-05-01 08:24 | 41.96058 | -87.91054 | 682 ft | 0 kts | 129° |
| 2026-05-01 08:46 | 41.96059 | -87.91056 | 681 ft | 1 kts | 130° |
| 2026-05-01 08:47 | 41.96068 | -87.91071 | 681 ft | 2 kts | 129° |
| 2026-05-01 08:47 | 41.96078 | -87.91087 | 681 ft | 2 kts | 129° |
| 2026-05-01 08:47 | 41.96087 | -87.91102 | 681 ft | 2 kts | 129° |
| 2026-05-01 08:47 | 41.96097 | -87.91118 | 681 ft | 2 kts | 136° |
| 2026-05-01 08:48 | 41.96109 | -87.91129 | 681 ft | 2 kts | 155° |
| 2026-05-01 08:48 | 41.96124 | -87.91136 | 681 ft | 2 kts | 169° |
| 2026-05-01 08:48 | 41.96139 | -87.91138 | 681 ft | 2 kts | 182° |
| 2026-05-01 08:48 | 41.96153 | -87.91138 | 681 ft | 0 kts | 181° |
| 2026-05-01 08:49 | 41.96164 | -87.91138 | 681 ft | 2 kts | 169° |
| 2026-05-01 08:49 | 41.96178 | -87.91145 | 681 ft | 2 kts | 147° |
| 2026-05-01 08:49 | 41.96189 | -87.91157 | 681 ft | 2 kts | 129° |
| 2026-05-01 08:49 | 41.96198 | -87.91174 | 681 ft | 2 kts | 111° |
| 2026-05-01 08:50 | 41.96201 | -87.91193 | 681 ft | 1 kts | 92° |
| 2026-05-01 08:50 | 41.96201 | -87.91201 | 681 ft | 0 kts | 89° |
| 2026-05-01 08:52 | 41.96201 | -87.91200 | 681 ft | 0 kts | 89° |
| 2026-05-01 08:53 | 41.96201 | -87.91150 | 681 ft | 9 kts | 90° |
| 2026-05-01 08:53 | 41.96200 | -87.91035 | 681 ft | 12 kts | 90° |
| 2026-05-01 08:53 | 41.96201 | -87.90926 | 681 ft | 10 kts | 90° |
| 2026-05-01 08:53 | 41.96202 | -87.90837 | 681 ft | 8 kts | 80° |
| 2026-05-01 08:54 | 41.96227 | -87.90771 | 681 ft | 8 kts | 56° |
| 2026-05-01 08:54 | 41.96267 | -87.90698 | 681 ft | 9 kts | 53° |
| 2026-05-01 08:54 | 41.96304 | -87.90632 | 681 ft | 8 kts | 53° |
| 2026-05-01 08:54 | 41.96338 | -87.90574 | 681 ft | 8 kts | 51° |
| 2026-05-01 08:55 | 41.96382 | -87.90504 | 681 ft | 10 kts | 39° |
| 2026-05-01 08:55 | 41.96460 | -87.90476 | 681 ft | 12 kts | 1° |
| 2026-05-01 08:55 | 41.96556 | -87.90475 | 681 ft | 14 kts | 7° |
| 2026-05-01 08:55 | 41.96631 | -87.90385 | 681 ft | 15 kts | 47° |
| 2026-05-01 08:56 | 41.96715 | -87.90405 | 681 ft | 15 kts | 289° |
| 2026-05-01 08:56 | 41.96722 | -87.90557 | 681 ft | 17 kts | 270° |
| 2026-05-01 08:56 | 41.96721 | -87.90732 | 681 ft | 18 kts | 269° |
| 2026-05-01 08:56 | 41.96721 | -87.90916 | 681 ft | 20 kts | 270° |
| 2026-05-01 08:57 | 41.96721 | -87.91114 | 681 ft | 21 kts | 270° |
| 2026-05-01 08:57 | 41.96721 | -87.91322 | 681 ft | 22 kts | 270° |
| 2026-05-01 08:57 | 41.96720 | -87.91524 | 681 ft | 20 kts | 270° |
| 2026-05-01 08:57 | 41.96720 | -87.91698 | 681 ft | 17 kts | 270° |
| 2026-05-01 08:58 | 41.96720 | -87.91846 | 681 ft | 14 kts | 270° |
| 2026-05-01 08:58 | 41.96720 | -87.91972 | 681 ft | 12 kts | 270° |
| 2026-05-01 08:58 | 41.96719 | -87.92094 | 681 ft | 13 kts | 270° |
| 2026-05-01 08:58 | 41.96719 | -87.92221 | 681 ft | 14 kts | 270° |
| 2026-05-01 08:59 | 41.96719 | -87.92365 | 681 ft | 15 kts | 270° |
| 2026-05-01 08:59 | 41.96719 | -87.92495 | 681 ft | 12 kts | 269° |
| 2026-05-01 08:59 | 41.96726 | -87.92600 | 681 ft | 10 kts | 298° |
| 2026-05-01 08:59 | 41.96779 | -87.92639 | 681 ft | 8 kts | 354° |
| 2026-05-01 09:00 | 41.96843 | -87.92642 | 681 ft | 10 kts | 359° |
| 2026-05-01 09:00 | 41.96924 | -87.92642 | 681 ft | 12 kts | 359° |
| 2026-05-01 09:00 | 41.97022 | -87.92642 | 681 ft | 15 kts | 360° |
| 2026-05-01 09:00 | 41.97132 | -87.92642 | 681 ft | 16 kts | 360° |
| 2026-05-01 09:01 | 41.97254 | -87.92643 | 681 ft | 18 kts | 359° |
| 2026-05-01 09:01 | 41.97387 | -87.92644 | 681 ft | 19 kts | 360° |
| 2026-05-01 09:01 | 41.97531 | -87.92645 | 681 ft | 20 kts | 359° |
| 2026-05-01 09:01 | 41.97682 | -87.92645 | 681 ft | 22 kts | 1° |
| 2026-05-01 09:02 | 41.97839 | -87.92645 | 681 ft | 22 kts | 360° |
| 2026-05-01 09:02 | 41.97991 | -87.92645 | 681 ft | 20 kts | 360° |
| 2026-05-01 09:02 | 41.98135 | -87.92626 | 681 ft | 21 kts | 1° |
| 2026-05-01 09:02 | 41.98250 | -87.92657 | 681 ft | 15 kts | 301° |
| 2026-05-01 09:03 | 41.98262 | -87.92813 | 681 ft | 17 kts | 269° |
| 2026-05-01 09:03 | 41.98262 | -87.92988 | 681 ft | 19 kts | 270° |
| 2026-05-01 09:03 | 41.98305 | -87.93113 | 681 ft | 16 kts | 343° |
| 2026-05-01 09:03 | 41.98373 | -87.93031 | 681 ft | 16 kts | 90° |
| 2026-05-01 09:04 | 41.98372 | -87.92987 | 681 ft | 9 kts | 90° |
| 2026-05-01 09:04 | 41.98372 | -87.92586 | 681 ft | 77 kts | 90° |
| 2026-05-01 09:04 | 41.98372 | -87.91532 | 681 ft | 143 kts | 90° |
| 2026-05-01 09:04 | 41.98373 | -87.89930 | 690 ft | 198 kts | 88° |
| 2026-05-01 09:05 | 41.98386 | -87.88033 | 1377 ft | 202 kts | 86° |
| 2026-05-01 09:05 | 41.98407 | -87.86189 | 2330 ft | 195 kts | 88° |
| 2026-05-01 09:05 | 41.98388 | -87.84290 | 2665 ft | 211 kts | 89° |
| 2026-05-01 09:05 | 41.98467 | -87.82269 | 2938 ft | 226 kts | 71° |
| 2026-05-01 09:06 | 41.99306 | -87.80384 | 3165 ft | 242 kts | 39° |
| 2026-05-01 09:06 | 42.00829 | -87.79333 | 3629 ft | 251 kts | 8° |
| 2026-05-01 09:06 | 42.02578 | -87.79256 | 4260 ft | 256 kts | 348° |
| 2026-05-01 09:06 | 42.04311 | -87.79986 | 4950 ft | 260 kts | 340° |
| 2026-05-01 09:07 | 42.06006 | -87.80830 | 5725 ft | 260 kts | 339° |
| 2026-05-01 09:07 | 42.07709 | -87.81684 | 6482 ft | 261 kts | 339° |
| 2026-05-01 09:07 | 42.09414 | -87.82540 | 7223 ft | 262 kts | 338° |
| 2026-05-01 09:07 | 42.11166 | -87.83420 | 7900 ft | 265 kts | 338° |
| 2026-05-01 09:08 | 42.12903 | -87.84293 | 8528 ft | 269 kts | 338° |
| 2026-05-01 09:08 | 42.14652 | -87.85172 | 9168 ft | 271 kts | 338° |
| 2026-05-01 09:08 | 42.14888 | -87.85292 | 9251 ft | 272 kts | 338° |
| 2026-05-01 09:08 | 42.16375 | -87.86040 | 9758 ft | 274 kts | 337° |
| 2026-05-01 09:09 | 42.18188 | -87.86953 | 10314 ft | 280 kts | 337° |
| 2026-05-01 09:09 | 42.19524 | -87.87628 | 10512 ft | 291 kts | 337° |
| 2026-05-01 09:09 | 42.21495 | -87.88625 | 10778 ft | 307 kts | 337° |
| 2026-05-01 09:09 | 42.23598 | -87.89687 | 11073 ft | 323 kts | 337° |
| 2026-05-01 09:10 | 42.25750 | -87.90775 | 11399 ft | 337 kts | 337° |
| 2026-05-01 09:10 | 42.28025 | -87.91924 | 11767 ft | 351 kts | 337° |
| 2026-05-01 09:10 | 42.30390 | -87.93034 | 12303 ft | 360 kts | 343° |
| 2026-05-01 09:10 | 42.32927 | -87.93624 | 13010 ft | 366 kts | 352° |
| 2026-05-01 09:11 | 42.35478 | -87.93937 | 13700 ft | 369 kts | 352° |
| 2026-05-01 09:11 | 42.37110 | -87.94128 | 14139 ft | 371 kts | 352° |
| 2026-05-01 09:11 | 42.40045 | -87.94472 | 14904 ft | 374 kts | 352° |
| 2026-05-01 09:11 | 42.42705 | -87.94785 | 15548 ft | 378 kts | 352° |
| 2026-05-01 09:12 | 42.45358 | -87.95100 | 16164 ft | 382 kts | 352° |
| 2026-05-01 09:12 | 42.48066 | -87.95422 | 16800 ft | 385 kts | 352° |
| 2026-05-01 09:12 | 42.50779 | -87.95755 | 17401 ft | 389 kts | 352° |
| 2026-05-01 09:12 | 42.53539 | -87.96095 | 17999 ft | 393 kts | 352° |
| 2026-05-01 09:13 | 42.56307 | -87.96436 | 18606 ft | 395 kts | 352° |
| 2026-05-01 09:13 | 42.59050 | -87.96775 | 19176 ft | 399 kts | 352° |
| 2026-05-01 09:13 | 42.61806 | -87.97116 | 19765 ft | 402 kts | 351° |
| 2026-05-01 09:13 | 42.64639 | -87.97395 | 20366 ft | 405 kts | 353° |
| 2026-05-01 09:14 | 42.67453 | -87.97586 | 20895 ft | 409 kts | 354° |
| 2026-05-01 09:14 | 42.70292 | -87.97912 | 21385 ft | 410 kts | 347° |
| 2026-05-01 09:14 | 42.73063 | -87.98814 | 21885 ft | 410 kts | 339° |
| 2026-05-01 09:14 | 42.75699 | -88.00317 | 22383 ft | 410 kts | 330° |
| 2026-05-01 09:15 | 42.78193 | -88.02208 | 22939 ft | 411 kts | 328° |
| 2026-05-01 09:15 | 42.80678 | -88.04145 | 23485 ft | 412 kts | 328° |
| 2026-05-01 09:15 | 42.83245 | -88.06149 | 23978 ft | 415 kts | 328° |
| 2026-05-01 09:15 | 42.85792 | -88.08137 | 24424 ft | 418 kts | 328° |
| 2026-05-01 09:16 | 42.88399 | -88.10173 | 24867 ft | 421 kts | 328° |
| 2026-05-01 09:16 | 42.90966 | -88.12179 | 25282 ft | 424 kts | 328° |
| 2026-05-01 09:16 | 42.93578 | -88.14222 | 25699 ft | 426 kts | 328° |
| 2026-05-01 09:17 | 42.98724 | -88.18253 | 26526 ft | 432 kts | 328° |
| 2026-05-01 09:17 | 43.01349 | -88.20311 | 26930 ft | 434 kts | 328° |
| 2026-05-01 09:17 | 43.06628 | -88.24456 | 27735 ft | 439 kts | 328° |
| 2026-05-01 09:18 | 43.09271 | -88.26535 | 28121 ft | 442 kts | 328° |
| 2026-05-01 09:18 | 43.14550 | -88.31226 | 28845 ft | 445 kts | 322° |
| 2026-05-01 09:19 | 43.19689 | -88.36283 | 29646 ft | 447 kts | 322° |
| 2026-05-01 09:19 | 43.21699 | -88.38263 | 29942 ft | 448 kts | 322° |
| 2026-05-01 09:20 | 43.28960 | -88.45424 | 30027 ft | 442 kts | 322° |
| 2026-05-01 09:21 | 43.38541 | -88.54904 | 30035 ft | 443 kts | 322° |
| 2026-05-01 09:21 | 43.46137 | -88.62444 | 30050 ft | 442 kts | 322° |
| 2026-05-01 09:22 | 43.56275 | -88.72547 | 30061 ft | 442 kts | 322° |
| 2026-05-01 09:23 | 43.63242 | -88.79514 | 30045 ft | 442 kts | 322° |
| 2026-05-01 09:24 | 43.70777 | -88.87072 | 30037 ft | 444 kts | 322° |
| 2026-05-01 09:25 | 43.80906 | -88.97269 | 30049 ft | 443 kts | 322° |
| 2026-05-01 09:26 | 43.88485 | -89.04928 | 30036 ft | 442 kts | 322° |
| 2026-05-01 09:26 | 43.96029 | -89.12575 | 30045 ft | 443 kts | 322° |
| 2026-05-01 09:27 | 44.03347 | -89.20018 | 30052 ft | 442 kts | 322° |
| 2026-05-01 09:28 | 44.08352 | -89.25121 | 30043 ft | 441 kts | 323° |
| 2026-05-01 09:28 | 44.13371 | -89.30251 | 30058 ft | 443 kts | 323° |
| 2026-05-01 09:29 | 44.20681 | -89.37740 | 30053 ft | 443 kts | 323° |
| 2026-05-01 09:30 | 44.28111 | -89.45378 | 30059 ft | 442 kts | 323° |
| 2026-05-01 09:30 | 44.35632 | -89.53135 | 30059 ft | 443 kts | 323° |
| 2026-05-01 09:31 | 44.39966 | -89.57615 | 30055 ft | 442 kts | 323° |
| 2026-05-01 09:32 | 44.47481 | -89.65406 | 30068 ft | 442 kts | 323° |
| 2026-05-01 09:32 | 44.54974 | -89.73202 | 30073 ft | 443 kts | 323° |
| 2026-05-01 09:33 | 44.59243 | -89.77653 | 30062 ft | 443 kts | 323° |
| 2026-05-01 09:34 | 44.66808 | -89.85561 | 30068 ft | 444 kts | 323° |
| 2026-05-01 09:34 | 44.74049 | -89.93155 | 30068 ft | 445 kts | 323° |
| 2026-05-01 09:35 | 44.81575 | -90.01074 | 30063 ft | 445 kts | 323° |
| 2026-05-01 09:36 | 44.86576 | -90.06352 | 30065 ft | 445 kts | 323° |
| 2026-05-01 09:36 | 44.91534 | -90.11595 | 30057 ft | 445 kts | 323° |
| 2026-05-01 09:37 | 44.96561 | -90.16924 | 30058 ft | 446 kts | 324° |
| 2026-05-01 09:37 | 45.04131 | -90.24970 | 30063 ft | 445 kts | 324° |
| 2026-05-01 09:38 | 45.11649 | -90.32988 | 30069 ft | 445 kts | 324° |
| 2026-05-01 09:39 | 45.19054 | -90.40913 | 30074 ft | 444 kts | 324° |
| 2026-05-01 09:39 | 45.23879 | -90.46091 | 30072 ft | 445 kts | 324° |
| 2026-05-01 09:40 | 45.31380 | -90.54163 | 30064 ft | 444 kts | 324° |
| 2026-05-01 09:41 | 45.36095 | -90.59251 | 30061 ft | 444 kts | 324° |
| 2026-05-01 09:41 | 45.43585 | -90.67356 | 30068 ft | 445 kts | 324° |
| 2026-05-01 09:42 | 45.48555 | -90.72749 | 30069 ft | 444 kts | 324° |
| 2026-05-01 09:43 | 45.57502 | -90.82489 | 30077 ft | 444 kts | 324° |
| 2026-05-01 09:43 | 45.62478 | -90.87924 | 30075 ft | 444 kts | 324° |
| 2026-05-01 09:44 | 45.69979 | -90.96139 | 30071 ft | 443 kts | 324° |
| 2026-05-01 09:45 | 45.74484 | -91.01087 | 30070 ft | 444 kts | 324° |
| 2026-05-01 09:45 | 45.82002 | -91.09367 | 30070 ft | 446 kts | 324° |
| 2026-05-01 09:46 | 45.87015 | -91.14905 | 30076 ft | 444 kts | 324° |
| 2026-05-01 09:46 | 45.91947 | -91.20364 | 30072 ft | 444 kts | 324° |
| 2026-05-01 09:47 | 45.96948 | -91.25915 | 30069 ft | 444 kts | 324° |
| 2026-05-01 09:47 | 46.01918 | -91.31444 | 30076 ft | 444 kts | 324° |
| 2026-05-01 09:48 | 46.06824 | -91.36913 | 30078 ft | 446 kts | 324° |
| 2026-05-01 09:48 | 46.11811 | -91.42487 | 30096 ft | 445 kts | 324° |
| 2026-05-01 09:49 | 46.16780 | -91.48053 | 30086 ft | 445 kts | 324° |
| 2026-05-01 09:49 | 46.21268 | -91.53091 | 30092 ft | 445 kts | 324° |
| 2026-05-01 09:50 | 46.26219 | -91.58662 | 30087 ft | 445 kts | 324° |
| 2026-05-01 09:50 | 46.31002 | -91.64056 | 30093 ft | 446 kts | 324° |
| 2026-05-01 09:51 | 46.35910 | -91.69604 | 30090 ft | 445 kts | 324° |
| 2026-05-01 09:51 | 46.40845 | -91.75197 | 30087 ft | 445 kts | 324° |
| 2026-05-01 09:52 | 46.44947 | -91.79855 | 30080 ft | 445 kts | 324° |
| 2026-05-01 09:52 | 46.49853 | -91.85437 | 30094 ft | 447 kts | 324° |
| 2026-05-01 09:53 | 46.54664 | -91.90923 | 30102 ft | 446 kts | 324° |
| 2026-05-01 09:53 | 46.59637 | -91.96610 | 30107 ft | 446 kts | 324° |
| 2026-05-01 09:54 | 46.64588 | -92.02285 | 30117 ft | 445 kts | 324° |
| 2026-05-01 09:54 | 46.69530 | -92.07961 | 30113 ft | 446 kts | 324° |
| 2026-05-01 09:55 | 46.74453 | -92.13631 | 30112 ft | 447 kts | 324° |
| 2026-05-01 09:55 | 46.79420 | -92.19306 | 30092 ft | 447 kts | 327° |
| 2026-05-01 09:56 | 46.84910 | -92.23598 | 30095 ft | 447 kts | 337° |
| 2026-05-01 09:56 | 46.90649 | -92.27442 | 30090 ft | 445 kts | 336° |
| 2026-05-01 09:57 | 46.96359 | -92.31302 | 30084 ft | 446 kts | 336° |
| 2026-05-01 09:57 | 47.02103 | -92.35211 | 30082 ft | 446 kts | 336° |
| 2026-05-01 09:58 | 47.07887 | -92.39165 | 30085 ft | 447 kts | 336° |
| 2026-05-01 09:58 | 47.13596 | -92.43081 | 30089 ft | 448 kts | 336° |
| 2026-05-01 09:59 | 47.19321 | -92.47020 | 30091 ft | 448 kts | 336° |
| 2026-05-01 09:59 | 47.24696 | -92.50727 | 30099 ft | 448 kts | 336° |
| 2026-05-01 10:00 | 47.30390 | -92.54664 | 30096 ft | 450 kts | 336° |
| 2026-05-01 10:00 | 47.35985 | -92.58543 | 30093 ft | 450 kts | 336° |
| 2026-05-01 10:01 | 47.41715 | -92.62524 | 30096 ft | 451 kts | 336° |
| 2026-05-01 10:01 | 47.47300 | -92.66414 | 30099 ft | 450 kts | 335° |
| 2026-05-01 10:02 | 47.52961 | -92.70367 | 30095 ft | 451 kts | 335° |
| 2026-05-01 10:02 | 47.58730 | -92.74403 | 30103 ft | 453 kts | 335° |
| 2026-05-01 10:03 | 47.64475 | -92.78434 | 30108 ft | 452 kts | 335° |
| 2026-05-01 10:03 | 47.70094 | -92.82386 | 30116 ft | 453 kts | 335° |
| 2026-05-01 10:04 | 47.75863 | -92.86453 | 30113 ft | 454 kts | 335° |
| 2026-05-01 10:04 | 47.81686 | -92.90569 | 30119 ft | 456 kts | 335° |
| 2026-05-01 10:05 | 47.87477 | -92.94672 | 30122 ft | 456 kts | 335° |
| 2026-05-01 10:05 | 47.92874 | -92.98505 | 30118 ft | 457 kts | 335° |
| 2026-05-01 10:06 | 47.98665 | -93.02628 | 30112 ft | 455 kts | 335° |
| 2026-05-01 10:06 | 48.04443 | -93.06751 | 30108 ft | 457 kts | 335° |
| 2026-05-01 10:07 | 48.10257 | -93.10912 | 30112 ft | 457 kts | 335° |
| 2026-05-01 10:07 | 48.15342 | -93.14558 | 30115 ft | 458 kts | 335° |
| 2026-05-01 10:08 | 48.24078 | -93.20843 | 30116 ft | 458 kts | 334° |
| 2026-05-01 10:09 | 48.29976 | -93.25098 | 30121 ft | 458 kts | 334° |
| 2026-05-01 10:09 | 48.35872 | -93.29365 | 30124 ft | 459 kts | 335° |
| 2026-05-01 10:10 | 48.41689 | -93.33584 | 30125 ft | 460 kts | 334° |
| 2026-05-01 10:10 | 48.49878 | -93.39542 | 30120 ft | 460 kts | 334° |
| 2026-05-01 10:11 | 48.55701 | -93.43792 | 30116 ft | 460 kts | 334° |
| 2026-05-01 10:11 | 48.61520 | -93.48050 | 30119 ft | 461 kts | 334° |
| 2026-05-01 10:12 | 48.65806 | -93.51193 | 30123 ft | 461 kts | 334° |
| 2026-05-01 10:13 | 48.75440 | -93.58280 | 30128 ft | 461 kts | 334° |
| 2026-05-01 10:13 | 48.81332 | -93.62630 | 30130 ft | 463 kts | 334° |
| 2026-05-01 10:14 | 48.90157 | -93.69166 | 30131 ft | 462 kts | 334° |
| 2026-05-01 10:14 | 48.95997 | -93.73505 | 30129 ft | 462 kts | 334° |
| 2026-05-01 10:15 | 49.01117 | -93.77319 | 30135 ft | 463 kts | 334° |
| 2026-05-01 10:15 | 49.07005 | -93.81717 | 30146 ft | 463 kts | 334° |
| 2026-05-01 10:16 | 49.12452 | -93.85795 | 30151 ft | 463 kts | 334° |
| 2026-05-01 10:17 | 49.21215 | -93.92377 | 30155 ft | 462 kts | 334° |
| 2026-05-01 10:17 | 49.29966 | -93.98975 | 30152 ft | 461 kts | 334° |
| 2026-05-01 10:18 | 49.38736 | -94.05614 | 30154 ft | 461 kts | 334° |
| 2026-05-01 10:19 | 49.44526 | -94.10010 | 30157 ft | 461 kts | 334° |
| 2026-05-01 10:19 | 49.50365 | -94.14458 | 30159 ft | 461 kts | 334° |
| 2026-05-01 10:20 | 49.58579 | -94.20733 | 30157 ft | 460 kts | 334° |
| 2026-05-01 10:20 | 49.64291 | -94.25111 | 30155 ft | 460 kts | 334° |
| 2026-05-01 10:21 | 49.72982 | -94.31795 | 30154 ft | 459 kts | 334° |
| 2026-05-01 10:22 | 49.81726 | -94.38510 | 30152 ft | 459 kts | 335° |
| 2026-05-01 10:23 | 49.90411 | -94.45053 | 30157 ft | 458 kts | 335° |
| 2026-05-01 10:23 | 49.97493 | -94.50415 | 30157 ft | 457 kts | 335° |
| 2026-05-01 10:24 | 50.00493 | -94.52692 | 30158 ft | 457 kts | 335° |
| 2026-05-01 10:25 | 50.12027 | -94.61478 | 30170 ft | 458 kts | 336° |
| 2026-05-01 10:26 | 50.16956 | -94.65250 | 30171 ft | 458 kts | 335° |
| 2026-05-01 10:27 | 50.28559 | -94.74160 | 30170 ft | 457 kts | 335° |
| 2026-05-01 10:28 | 50.35590 | -94.79583 | 30167 ft | 457 kts | 335° |
| 2026-05-01 10:28 | 50.44279 | -94.86311 | 30166 ft | 455 kts | 335° |
| 2026-05-01 10:29 | 50.51650 | -94.92039 | 30165 ft | 455 kts | 335° |
| 2026-05-01 10:30 | 50.63180 | -95.01040 | 30162 ft | 454 kts | 335° |
| 2026-05-01 10:31 | 50.72607 | -95.08435 | 30171 ft | 453 kts | 335° |